Time;durP1;ratioP1;P1;durP2;ratioP2;P2;SDS_P1;SDS_P2;PMS_P1;PMS_P2;Temp;Humidity;BMP_temperature;BMP_pressure;BME280_temperature;BME280_humidity;BME280_pressure;Samples;Min_cycle;Max_cycle;Signal;HPM_P1;HPM_P2
2021/07/31 00:00:48;;;;;;;1.10;1.00;;;22.30;59.70;;;;;;5050878;28;20227;-67
2021/07/31 00:03:13;;;;;;;1.40;1.20;;;22.30;59.70;;;;;;5053969;28;20171;-68
2021/07/31 00:05:39;;;;;;;2.05;1.38;;;22.30;59.70;;;;;;5054353;28;20218;-67
2021/07/31 00:08:04;;;;;;;1.33;1.20;;;22.30;59.70;;;;;;5054407;28;20300;-68
2021/07/31 00:10:30;;;;;;;2.13;1.30;;;22.30;59.70;;;;;;5035599;28;20460;-68
2021/07/31 00:12:55;;;;;;;1.90;1.40;;;22.30;59.70;;;;;;5054394;28;20171;-67
2021/07/31 00:15:21;;;;;;;1.60;1.15;;;22.30;59.70;;;;;;5053256;28;20228;-67
2021/07/31 00:17:46;;;;;;;1.63;1.20;;;22.30;59.70;;;;;;5054474;28;20253;-67
2021/07/31 00:20:12;;;;;;;1.20;1.10;;;22.30;59.80;;;;;;5054206;28;20179;-66
2021/07/31 00:22:37;;;;;;;1.77;1.27;;;22.30;59.70;;;;;;5053132;28;20186;-68
2021/07/31 00:25:03;;;;;;;1.42;1.27;;;22.30;59.80;;;;;;5054078;28;20219;-67
2021/07/31 00:27:29;;;;;;;2.78;1.30;;;22.30;59.80;;;;;;5053692;28;20182;-67
2021/07/31 00:29:54;;;;;;;3.03;1.35;;;22.30;59.70;;;;;;5053525;28;20321;-67
2021/07/31 00:32:20;;;;;;;1.95;1.25;;;22.30;59.80;;;;;;5054003;28;20286;-67
2021/07/31 00:34:45;;;;;;;1.85;1.30;;;22.20;59.70;;;;;;5054118;28;20315;-67
2021/07/31 00:37:11;;;;;;;1.75;1.20;;;22.30;59.80;;;;;;5053381;28;20171;-68
2021/07/31 00:39:39;;;;;;;1.67;1.27;;;22.20;59.80;;;;;;5053725;28;20511;-68
2021/07/31 00:42:06;;;;;;;1.42;1.17;;;22.30;59.70;;;;;;5053808;28;20263;-68
2021/07/31 00:44:31;;;;;;;1.35;1.13;;;22.30;59.80;;;;;;5052932;28;20245;-67
2021/07/31 00:46:57;;;;;;;1.33;1.23;;;22.20;59.70;;;;;;5053983;28;20171;-68
2021/07/31 00:49:22;;;;;;;2.55;1.23;;;22.30;59.80;;;;;;5035540;28;20221;-67
2021/07/31 00:51:48;;;;;;;2.13;1.33;;;22.30;59.80;;;;;;5053093;28;20224;-68
2021/07/31 00:54:16;;;;;;;1.60;1.00;;;22.20;59.80;;;;;;5053705;28;20210;-67
2021/07/31 00:56:42;;;;;;;2.15;1.13;;;22.20;59.80;;;;;;5035625;28;20558;-67
2021/07/31 00:59:11;;;;;;;1.10;1.10;;;22.20;59.80;;;;;;5034996;28;20179;-67
2021/07/31 01:01:37;;;;;;;1.95;1.42;;;22.20;59.80;;;;;;5053303;28;20206;-68
2021/07/31 01:04:02;;;;;;;1.30;1.10;;;22.20;59.80;;;;;;5053483;28;20231;-67
2021/07/31 01:06:28;;;;;;;1.33;1.23;;;22.20;59.80;;;;;;5034781;28;20265;-68
2021/07/31 01:08:53;;;;;;;2.95;1.80;;;22.20;59.90;;;;;;5053341;28;20230;-68
2021/07/31 01:11:19;;;;;;;1.85;1.00;;;22.20;59.80;;;;;;5035580;28;20187;-68
2021/07/31 01:13:45;;;;;;;1.95;1.20;;;22.20;59.90;;;;;;5034744;28;20201;-68
2021/07/31 01:16:10;;;;;;;1.30;1.17;;;22.20;59.90;;;;;;5035541;28;20183;-67
2021/07/31 01:18:36;;;;;;;1.30;1.13;;;22.20;59.90;;;;;;5052536;28;20179;-67
2021/07/31 01:21:02;;;;;;;1.30;1.20;;;22.30;59.90;;;;;;5053387;28;20218;-67
2021/07/31 01:23:27;;;;;;;3.13;1.25;;;22.20;59.80;;;;;;5053147;28;20561;-67
2021/07/31 01:25:53;;;;;;;1.83;1.20;;;22.20;59.90;;;;;;5052434;28;20222;-68
2021/07/31 01:28:18;;;;;;;1.65;1.45;;;22.20;59.90;;;;;;5053174;28;20237;-67
2021/07/31 01:30:44;;;;;;;2.75;1.30;;;22.20;59.80;;;;;;5053311;28;20217;-68
2021/07/31 01:33:09;;;;;;;1.33;1.23;;;22.20;59.90;;;;;;5052584;28;20278;-68
2021/07/31 01:35:35;;;;;;;1.50;1.30;;;22.20;59.90;;;;;;5052699;28;20228;-68
2021/07/31 01:38:01;;;;;;;2.03;1.50;;;22.20;59.90;;;;;;5053034;28;20225;-68
2021/07/31 01:40:28;;;;;;;2.00;1.30;;;22.20;59.90;;;;;;5051807;28;20198;-67
2021/07/31 01:42:56;;;;;;;1.40;1.30;;;22.20;59.90;;;;;;5053068;28;20175;-68
2021/07/31 01:45:25;;;;;;;2.55;1.55;;;22.20;59.90;;;;;;5035371;28;20317;-67
2021/07/31 01:47:50;;;;;;;1.63;1.38;;;22.20;59.90;;;;;;5052148;28;20212;-67
2021/07/31 01:50:16;;;;;;;2.25;1.45;;;22.20;59.90;;;;;;5052578;28;20212;-67
2021/07/31 01:52:42;;;;;;;2.42;1.30;;;22.10;59.90;;;;;;5052455;28;20243;-68
2021/07/31 01:55:07;;;;;;;2.22;1.50;;;22.10;59.90;;;;;;5051642;28;20707;-67
2021/07/31 01:57:33;;;;;;;3.75;1.52;;;22.10;59.90;;;;;;5052371;28;20695;-68
2021/07/31 01:59:58;;;;;;;1.40;1.30;;;22.10;59.90;;;;;;5052488;28;20187;-67
2021/07/31 02:02:24;;;;;;;1.42;1.33;;;22.20;60.00;;;;;;5051674;28;20179;-67
2021/07/31 02:04:49;;;;;;;1.48;1.10;;;22.10;59.90;;;;;;5052281;28;20231;-68
2021/07/31 02:07:15;;;;;;;2.90;1.50;;;22.10;60.00;;;;;;5052325;28;20531;-68
2021/07/31 02:09:40;;;;;;;2.10;1.48;;;22.10;60.00;;;;;;5051360;28;20234;-68
2021/07/31 02:12:06;;;;;;;2.10;1.50;;;22.10;59.90;;;;;;5052456;28;20167;-68
2021/07/31 02:14:32;;;;;;;2.33;1.40;;;22.10;60.00;;;;;;5052111;28;20237;-67
2021/07/31 02:16:57;;;;;;;2.40;1.30;;;22.10;60.10;;;;;;5034048;28;20326;-67
2021/07/31 02:19:23;;;;;;;1.70;1.23;;;22.10;59.90;;;;;;5051857;28;20596;-67
2021/07/31 02:21:49;;;;;;;1.60;1.38;;;22.10;60.00;;;;;;5051236;28;20311;-67
2021/07/31 02:24:15;;;;;;;1.98;1.20;;;22.10;60.10;;;;;;5051374;28;20214;-67
2021/07/31 02:26:40;;;;;;;2.13;1.67;;;22.00;60.00;;;;;;5052016;28;20642;-67
2021/07/31 02:29:06;;;;;;;2.63;1.50;;;22.10;60.10;;;;;;5051802;28;20163;-67
2021/07/31 02:31:31;;;;;;;1.50;1.40;;;22.10;60.00;;;;;;5052228;28;20171;-67
2021/07/31 02:33:57;;;;;;;2.13;1.25;;;22.10;60.00;;;;;;5052046;28;20221;-68
2021/07/31 02:36:22;;;;;;;2.97;1.63;;;22.10;60.00;;;;;;5050784;28;20587;-67
2021/07/31 02:38:48;;;;;;;2.17;1.40;;;22.10;60.00;;;;;;5051675;28;20191;-67
2021/07/31 02:41:13;;;;;;;1.63;1.10;;;22.10;60.10;;;;;;5051937;28;20250;-67
2021/07/31 02:43:39;;;;;;;1.42;1.25;;;22.10;60.00;;;;;;5032837;28;20163;-67
2021/07/31 02:46:05;;;;;;;1.48;1.13;;;22.10;60.00;;;;;;5051426;28;20219;-67
2021/07/31 02:48:32;;;;;;;2.38;1.13;;;22.10;60.00;;;;;;5051436;28;20236;-67
2021/07/31 02:51:02;;;;;;;2.42;1.60;;;22.10;60.10;;;;;;5051025;28;20194;-67
2021/07/31 02:53:28;;;;;;;1.80;1.30;;;22.00;60.10;;;;;;5051150;28;20259;-68
2021/07/31 02:55:53;;;;;;;1.85;1.20;;;22.00;60.10;;;;;;5051673;28;20271;-68
2021/07/31 02:58:19;;;;;;;1.75;1.40;;;22.00;60.10;;;;;;5050801;28;20554;-67
2021/07/31 03:00:47;;;;;;;1.85;1.55;;;22.00;60.10;;;;;;5051744;28;20179;-67
2021/07/31 03:03:13;;;;;;;2.05;1.33;;;22.00;60.10;;;;;;5051534;28;20175;-67
2021/07/31 03:05:38;;;;;;;1.90;1.20;;;22.00;60.20;;;;;;5050181;28;20297;-67
2021/07/31 03:08:04;;;;;;;2.38;1.48;;;22.00;60.20;;;;;;5051051;28;20234;-68
2021/07/31 03:10:30;;;;;;;1.98;1.35;;;22.00;60.20;;;;;;5051284;28;20201;-68
2021/07/31 03:12:55;;;;;;;2.42;1.58;;;22.00;60.10;;;;;;5050501;28;20652;-68
2021/07/31 03:15:21;;;;;;;1.70;1.30;;;22.00;60.10;;;;;;5050934;28;20649;-67
2021/07/31 03:17:46;;;;;;;2.38;1.13;;;22.00;60.10;;;;;;5051360;28;20195;-67
2021/07/31 03:20:12;;;;;;;1.25;1.15;;;22.00;60.20;;;;;;5050535;28;20606;-67
2021/07/31 03:22:38;;;;;;;1.23;1.10;;;22.00;60.20;;;;;;5051119;28;20589;-66
2021/07/31 03:25:03;;;;;;;3.22;1.17;;;22.00;60.20;;;;;;5050612;28;20221;-66
2021/07/31 03:27:29;;;;;;;2.90;1.42;;;22.00;60.20;;;;;;5050619;28;20528;-67
2021/07/31 03:29:54;;;;;;;2.78;1.70;;;22.00;60.20;;;;;;5051142;28;20175;-67
2021/07/31 03:32:20;;;;;;;1.85;1.50;;;22.00;60.20;;;;;;5050071;28;20168;-67
2021/07/31 03:34:46;;;;;;;1.58;1.40;;;22.00;60.20;;;;;;5050984;28;20171;-66
2021/07/31 03:37:11;;;;;;;2.28;1.70;;;22.00;60.30;;;;;;5055217;28;20183;-68
2021/07/31 03:39:37;;;;;;;2.80;1.48;;;22.00;60.30;;;;;;5054185;28;20179;-67
2021/07/31 03:42:02;;;;;;;3.42;1.52;;;22.00;60.30;;;;;;5055047;28;20265;-67
2021/07/31 03:44:28;;;;;;;2.25;1.60;;;22.00;60.30;;;;;;5054929;28;20226;-67
2021/07/31 03:46:53;;;;;;;2.85;1.73;;;22.00;60.30;;;;;;5054662;28;20652;-67
2021/07/31 03:49:21;;;;;;;1.60;1.40;;;22.00;60.30;;;;;;5054844;28;20171;-67
2021/07/31 03:51:46;;;;;;;1.60;1.50;;;21.90;60.30;;;;;;5055024;28;20175;-67
2021/07/31 03:54:12;;;;;;;7.07;1.80;;;22.00;60.40;;;;;;5054202;28;20173;-67
2021/07/31 03:56:37;;;;;;;1.92;1.27;;;21.90;60.30;;;;;;5054694;28;20205;-68
2021/07/31 03:59:03;;;;;;;1.30;1.10;;;21.90;60.40;;;;;;5054991;28;20172;-67
2021/07/31 04:01:29;;;;;;;1.85;1.50;;;21.90;60.40;;;;;;5053636;28;20596;-68
2021/07/31 04:03:55;;;;;;;2.28;1.75;;;22.00;60.50;;;;;;5054535;28;20175;-67
2021/07/31 04:06:20;;;;;;;2.63;2.08;;;21.90;60.40;;;;;;5054637;28;20268;-67
2021/07/31 04:08:46;;;;;;;1.55;1.20;;;22.00;60.50;;;;;;5053976;28;20364;-67
2021/07/31 04:11:11;;;;;;;2.17;1.80;;;21.90;60.40;;;;;;5054627;28;20175;-67
2021/07/31 04:13:37;;;;;;;2.45;1.38;;;21.90;60.40;;;;;;5054270;28;20171;-67
2021/07/31 04:16:08;;;;;;;1.50;1.30;;;21.90;60.50;;;;;;5053872;28;20179;-67
2021/07/31 04:18:34;;;;;;;3.17;1.50;;;21.90;60.60;;;;;;5054183;28;20615;-66
2021/07/31 04:21:00;;;;;;;1.42;1.20;;;21.80;60.40;;;;;;5054294;28;20257;-66
2021/07/31 04:23:26;;;;;;;2.05;1.30;;;21.90;60.50;;;;;;5053319;28;20518;-67
2021/07/31 04:25:51;;;;;;;2.28;1.30;;;21.90;60.50;;;;;;5054138;28;20210;-67
2021/07/31 04:28:17;;;;;;;2.42;1.40;;;21.90;60.60;;;;;;5054039;28;20179;-67
2021/07/31 04:30:42;;;;;;;1.77;1.52;;;21.90;60.60;;;;;;5053459;28;20183;-67
2021/07/31 04:33:08;;;;;;;2.70;1.50;;;21.90;60.60;;;;;;5054002;28;20178;-67
2021/07/31 04:35:33;;;;;;;2.20;1.65;;;21.90;60.60;;;;;;5052939;28;20586;-67
2021/07/31 04:37:59;;;;;;;2.22;1.20;;;21.90;60.70;;;;;;5054019;28;20262;-67
2021/07/31 04:40:24;;;;;;;1.70;1.60;;;21.90;60.60;;;;;;5053803;28;20271;-67
2021/07/31 04:42:50;;;;;;;2.08;1.40;;;21.90;60.70;;;;;;5053335;28;20270;-67
2021/07/31 04:45:15;;;;;;;2.47;1.50;;;21.90;61.50;;;;;;5053696;28;20218;-67
2021/07/31 04:47:41;;;;;;;2.05;1.50;;;21.90;60.70;;;;;;5053090;28;20174;-67
2021/07/31 04:50:08;;;;;;;1.85;1.38;;;21.90;60.70;;;;;;5053067;28;20636;-67
2021/07/31 04:52:34;;;;;;;1.88;1.50;;;21.90;60.70;;;;;;5053677;28;20175;-67
2021/07/31 04:55:00;;;;;;;2.00;1.60;;;21.90;60.80;;;;;;5053668;28;20622;-67
2021/07/31 04:57:25;;;;;;;1.33;1.23;;;21.90;60.70;;;;;;5052740;28;20175;-67
2021/07/31 04:59:51;;;;;;;2.15;1.60;;;21.90;60.70;;;;;;5053587;28;20490;-67
2021/07/31 05:02:16;;;;;;;2.42;1.65;;;21.90;60.80;;;;;;5053215;28;20190;-67
2021/07/31 05:04:42;;;;;;;1.45;1.35;;;21.80;60.70;;;;;;5052919;28;20309;-67
2021/07/31 05:07:08;;;;;;;2.20;1.73;;;21.80;60.70;;;;;;5053764;28;20224;-67
2021/07/31 05:09:33;;;;;;;2.28;1.65;;;21.90;60.80;;;;;;5052999;28;20235;-67
2021/07/31 05:11:59;;;;;;;1.85;1.40;;;21.80;60.80;;;;;;5052885;28;20663;-68
2021/07/31 05:14:26;;;;;;;2.63;1.65;;;21.80;60.70;;;;;;5053158;28;20274;-67
2021/07/31 05:16:51;;;;;;;2.72;1.88;;;21.90;60.80;;;;;;5053269;28;20250;-67
2021/07/31 05:19:17;;;;;;;1.63;1.52;;;21.80;60.80;;;;;;5052209;28;20262;-67
2021/07/31 05:21:42;;;;;;;1.50;1.40;;;21.80;60.80;;;;;;5053567;28;20538;-66
2021/07/31 05:24:08;;;;;;;1.48;1.23;;;21.90;60.80;;;;;;5053234;28;20645;-67
2021/07/31 05:26:33;;;;;;;2.72;1.40;;;21.90;60.80;;;;;;5052022;28;20179;-66
2021/07/31 05:28:59;;;;;;;1.67;1.38;;;21.90;60.80;;;;;;5053226;28;20542;-67
2021/07/31 05:31:24;;;;;;;1.45;1.35;;;21.90;60.80;;;;;;5052614;28;20629;-67
2021/07/31 05:33:50;;;;;;;2.33;1.60;;;21.80;60.90;;;;;;5052400;28;20179;-67
2021/07/31 05:36:15;;;;;;;2.20;1.80;;;21.90;60.90;;;;;;5052918;28;20274;-67
2021/07/31 05:38:41;;;;;;;2.22;1.77;;;21.80;60.90;;;;;;5052407;28;20179;-67
2021/07/31 05:41:15;;;;;;;1.85;1.60;;;21.80;60.80;;;;;;5052577;28;20167;-67
2021/07/31 05:43:41;;;;;;;1.50;1.38;;;21.80;60.80;;;;;;5052743;28;20183;-67
2021/07/31 05:46:06;;;;;;;2.60;1.60;;;21.80;60.80;;;;;;5051761;28;20211;-67
2021/07/31 05:48:32;;;;;;;1.90;1.60;;;21.80;60.90;;;;;;5052305;28;20175;-66
2021/07/31 05:50:57;;;;;;;1.75;1.55;;;21.80;60.90;;;;;;5052618;28;20542;-68
2021/07/31 05:53:23;;;;;;;2.38;1.48;;;21.80;60.90;;;;;;5051645;28;20182;-67
2021/07/31 05:55:48;;;;;;;1.40;1.20;;;21.80;60.90;;;;;;5052649;28;20175;-67
2021/07/31 05:58:14;;;;;;;1.30;1.20;;;21.80;60.90;;;;;;5052148;28;20283;-67
2021/07/31 06:00:39;;;;;;;2.17;1.50;;;21.80;60.90;;;;;;5050674;28;20721;-67
2021/07/31 06:03:05;;;;;;;2.03;1.60;;;21.80;60.90;;;;;;5052507;28;20238;-67
2021/07/31 06:05:30;;;;;;;2.72;1.55;;;21.80;60.90;;;;;;5051907;28;20271;-67
2021/07/31 06:07:56;;;;;;;1.90;1.50;;;21.80;60.90;;;;;;5051536;28;20226;-68
2021/07/31 06:10:21;;;;;;;1.65;1.40;;;21.80;60.90;;;;;;5052027;28;20175;-67
2021/07/31 06:12:47;;;;;;;1.55;1.27;;;21.80;60.90;;;;;;5052042;28;20498;-67
2021/07/31 06:15:12;;;;;;;1.58;1.40;;;21.80;61.00;;;;;;5051552;28;20167;-67
2021/07/31 06:17:38;;;;;;;2.08;1.45;;;21.80;60.90;;;;;;5052152;28;20243;-67
2021/07/31 06:20:11;;;;;;;1.48;1.38;;;21.80;61.00;;;;;;5129801;27;20287;-66
2021/07/31 06:22:36;;;;;;;1.25;1.20;;;21.80;60.90;;;;;;5128801;27;20216;-66
2021/07/31 06:25:02;;;;;;;1.20;1.10;;;21.80;60.90;;;;;;5129776;28;20233;-66
2021/07/31 06:27:28;;;;;;;1.77;1.40;;;21.80;61.00;;;;;;5129447;28;20291;-67
2021/07/31 06:29:53;;;;;;;1.42;1.33;;;21.80;60.90;;;;;;5129018;28;20164;-67
2021/07/31 06:32:19;;;;;;;2.20;1.42;;;21.80;61.00;;;;;;5129282;28;20507;-66
2021/07/31 06:34:44;;;;;;;1.05;1.05;;;21.90;61.10;;;;;;5129750;28;20313;-67
2021/07/31 06:37:10;;;;;;;1.65;1.52;;;21.80;61.10;;;;;;5129011;28;20183;-68
2021/07/31 06:39:35;;;;;;;1.23;1.13;;;21.80;61.20;;;;;;5128952;28;20216;-67
2021/07/31 06:42:01;;;;;;;1.60;1.42;;;21.80;61.10;;;;;;5128783;28;20173;-67
2021/07/31 06:44:26;;;;;;;1.60;1.50;;;21.80;61.20;;;;;;5128917;28;20225;-66
2021/07/31 06:46:52;;;;;;;1.40;1.30;;;21.80;61.10;;;;;;5129287;28;20176;-67
2021/07/31 06:49:17;;;;;;;1.70;1.45;;;21.80;61.10;;;;;;5128366;28;20500;-67
2021/07/31 06:51:43;;;;;;;2.10;1.20;;;21.80;61.10;;;;;;5129183;28;20602;-67
2021/07/31 06:54:09;;;;;;;2.15;1.50;;;21.80;61.10;;;;;;5129307;28;20196;-67
2021/07/31 06:56:35;;;;;;;2.28;1.42;;;21.70;61.00;;;;;;5128418;28;20241;-67
2021/07/31 06:59:01;;;;;;;1.50;1.40;;;21.80;61.10;;;;;;5128967;28;20264;-67
2021/07/31 07:01:27;;;;;;;1.80;1.30;;;21.80;61.10;;;;;;5129167;28;20181;-69
2021/07/31 07:03:52;;;;;;;2.10;1.60;;;21.80;61.10;;;;;;5128704;28;20173;-69
2021/07/31 07:06:18;;;;;;;2.05;1.60;;;21.80;61.10;;;;;;5129006;28;20220;-70
2021/07/31 07:08:43;;;;;;;2.10;1.40;;;21.80;61.10;;;;;;5129018;28;20180;-70
2021/07/31 07:11:12;;;;;;;1.63;1.50;;;21.80;61.00;;;;;;5128411;28;20181;-69
2021/07/31 07:13:38;;;;;;;1.83;1.63;;;21.80;61.10;;;;;;5128409;28;20181;-69
2021/07/31 07:16:04;;;;;;;7.57;2.15;;;21.80;61.20;;;;;;5128879;28;20221;-68
2021/07/31 07:18:30;;;;;;;6.40;1.95;;;21.80;61.20;;;;;;5134203;27;20270;-69
2021/07/31 07:20:55;;;;;;;7.93;1.63;;;21.80;61.20;;;;;;5149363;27;20199;-69
2021/07/31 07:23:20;;;;;;;4.10;1.65;;;21.80;61.30;;;;;;5149094;27;20176;-69
2021/07/31 07:25:46;;;;;;;1.60;1.50;;;21.80;61.30;;;;;;5148571;27;20236;-70
2021/07/31 07:28:11;;;;;;;2.92;1.88;;;21.90;61.30;;;;;;5149108;27;20195;-70
2021/07/31 07:30:37;;;;;;;2.95;1.77;;;21.90;61.20;;;;;;5140670;27;20259;-71
2021/07/31 07:33:03;;;;;;;2.30;1.73;;;21.90;61.20;;;;;;5134534;27;20164;-71
2021/07/31 07:35:29;;;;;;;3.35;1.80;;;21.90;61.20;;;;;;5135081;27;20535;-69
2021/07/31 07:37:54;;;;;;;1.60;1.50;;;21.90;61.10;;;;;;5135235;27;20267;-72
2021/07/31 07:40:20;;;;;;;1.60;1.50;;;21.90;61.00;;;;;;5134285;27;20526;-69
2021/07/31 07:42:45;;;;;;;4.00;1.85;;;22.00;61.20;;;;;;5134969;27;20575;-64
2021/07/31 07:45:11;;;;;;;4.18;1.92;;;21.90;61.10;;;;;;5135300;27;20203;-64
2021/07/31 07:47:36;;;;;;;4.30;1.88;;;21.90;61.20;;;;;;5134158;27;20173;-65
2021/07/31 07:50:03;;;;;;;4.35;1.70;;;21.90;62.10;;;;;;5134974;27;20629;-67
2021/07/31 07:52:28;;;;;;;4.25;1.73;;;21.90;61.30;;;;;;5134203;27;20259;-70
2021/07/31 07:54:54;;;;;;;5.15;2.08;;;22.00;61.30;;;;;;5135274;27;20267;-70
2021/07/31 07:57:20;;;;;;;4.15;1.85;;;21.90;61.30;;;;;;5134733;27;20175;-70
2021/07/31 07:59:45;;;;;;;4.05;2.10;;;22.00;61.30;;;;;;5134525;27;20552;-69
2021/07/31 08:02:11;;;;;;;2.20;1.65;;;22.00;61.40;;;;;;5135261;27;20247;-70
2021/07/31 08:04:36;;;;;;;2.00;1.65;;;22.00;61.30;;;;;;5134950;27;20165;-70
2021/07/31 08:07:02;;;;;;;4.13;2.15;;;22.00;61.30;;;;;;5134370;27;20642;-70
2021/07/31 08:09:28;;;;;;;3.95;1.80;;;22.00;61.30;;;;;;5134728;27;20314;-69
2021/07/31 08:11:53;;;;;;;5.13;1.88;;;22.00;61.30;;;;;;5134769;27;20507;-66
2021/07/31 08:14:22;;;;;;;3.92;1.67;;;22.10;62.10;;;;;;5133741;27;20535;-66
2021/07/31 08:16:47;;;;;;;2.47;1.63;;;22.10;61.10;;;;;;5134867;27;20179;-66
2021/07/31 08:19:13;;;;;;;2.25;1.90;;;22.20;60.80;;;;;;5134266;27;20220;-65
2021/07/31 08:21:38;;;;;;;2.45;1.85;;;22.20;60.80;;;;;;5133555;27;20525;-65
2021/07/31 08:24:05;;;;;;;2.17;1.80;;;22.10;60.80;;;;;;5134481;27;20183;-65
2021/07/31 08:26:30;;;;;;;3.55;1.77;;;22.10;60.90;;;;;;5134215;27;20173;-66
2021/07/31 08:28:56;;;;;;;2.30;1.70;;;22.10;60.90;;;;;;5133999;27;20272;-66
2021/07/31 08:31:21;;;;;;;2.20;2.00;;;22.10;60.90;;;;;;5134221;27;20173;-66
2021/07/31 08:33:47;;;;;;;2.83;1.63;;;22.10;61.00;;;;;;5134601;27;20172;-66
2021/07/31 08:36:12;;;;;;;2.17;1.98;;;22.10;60.90;;;;;;5133692;27;20204;-66
2021/07/31 08:38:38;;;;;;;3.75;1.80;;;22.10;60.90;;;;;;5133934;27;20203;-64
2021/07/31 08:41:06;;;;;;;3.38;1.92;;;22.20;60.80;;;;;;5133838;27;20528;-65
2021/07/31 08:43:32;;;;;;;2.83;1.83;;;22.20;60.80;;;;;;5132886;27;20168;-64
2021/07/31 08:45:58;;;;;;;2.55;1.77;;;22.20;60.90;;;;;;5134473;27;20213;-64
2021/07/31 08:48:27;;;;;;;1.98;1.77;;;22.10;60.90;;;;;;5134144;27;20173;-63
2021/07/31 08:50:56;;;;;;;2.20;1.73;;;22.10;61.20;;;;;;5133409;27;20516;-63
2021/07/31 08:53:25;;;;;;;1.88;1.55;;;22.10;61.10;;;;;;5115609;27;20660;-63
2021/07/31 08:55:52;;;;;;;3.08;1.83;;;22.10;61.20;;;;;;5133065;27;20176;-64
2021/07/31 08:58:17;;;;;;;3.38;1.70;;;22.10;61.30;;;;;;5115254;27;20551;-64
2021/07/31 09:00:43;;;;;;;1.98;1.65;;;22.10;61.20;;;;;;5133693;27;20629;-62
2021/07/31 09:03:09;;;;;;;4.22;2.10;;;22.10;62.20;;;;;;5132924;27;20176;-64
2021/07/31 09:05:35;;;;;;;3.63;1.88;;;22.10;61.60;;;;;;5133272;27;20176;-64
2021/07/31 09:08:05;;;;;;;2.35;1.92;;;22.10;61.50;;;;;;5133285;27;20611;-65
2021/07/31 09:10:38;;;;;;;3.88;1.85;;;22.10;61.60;;;;;;5132442;27;20221;-65
2021/07/31 09:13:05;;;;;;;2.42;1.58;;;22.10;61.30;;;;;;5133652;27;20172;-64
2021/07/31 09:15:47;;;;;;;4.50;1.70;;;22.10;61.60;;;;;;5132914;27;20191;-63
2021/07/31 09:18:35;;;;;;;1.60;1.33;;;22.10;61.80;;;;;;5132132;27;20280;-63
2021/07/31 09:21:13;;;;;;;3.00;2.00;;;22.10;61.80;;;;;;5133439;27;20255;-63
2021/07/31 09:23:49;;;;;;;2.03;1.60;;;22.10;61.90;;;;;;5133164;27;20194;-63
2021/07/31 09:26:17;;;;;;;2.95;1.50;;;22.10;62.00;;;;;;5133321;27;20184;-62
2021/07/31 09:28:42;;;;;;;3.00;1.98;;;22.10;62.00;;;;;;5132933;27;20172;-63
2021/07/31 09:31:17;;;;;;;1.70;1.60;;;22.10;62.00;;;;;;5132039;27;20221;-63
2021/07/31 09:33:44;;;;;;;1.92;1.60;;;22.10;62.00;;;;;;5132953;27;20583;-64
2021/07/31 09:36:10;;;;;;;2.28;1.67;;;22.10;62.00;;;;;;5114568;27;20203;-64
2021/07/31 09:38:39;;;;;;;3.47;1.80;;;22.10;62.00;;;;;;5131559;27;20258;-66
2021/07/31 09:41:23;;;;;;;2.15;1.35;;;22.10;62.20;;;;;;5132701;27;20195;-67
2021/07/31 09:44:03;;;;;;;3.03;1.80;;;22.00;61.80;;;;;;5132482;27;20191;-67
2021/07/31 09:46:48;;;;;;;1.88;1.67;;;22.00;61.70;;;;;;5131847;27;20174;-67
2021/07/31 09:49:17;;;;;;;1.95;1.60;;;22.00;61.70;;;;;;5132516;27;20589;-66
2021/07/31 09:51:50;;;;;;;2.63;1.70;;;22.00;61.90;;;;;;5132600;27;20176;-67
2021/07/31 09:54:17;;;;;;;2.88;1.80;;;22.00;61.70;;;;;;5131195;27;20176;-66
2021/07/31 09:56:54;;;;;;;2.25;1.80;;;22.10;61.70;;;;;;5132500;27;20187;-67
2021/07/31 09:59:21;;;;;;;3.53;1.58;;;22.20;61.50;;;;;;5131666;27;20219;-66
2021/07/31 10:02:06;;;;;;;2.17;1.88;;;22.20;61.30;;;;;;5132514;27;20181;-67
2021/07/31 10:04:32;;;;;;;1.83;1.48;;;22.30;61.10;;;;;;5131801;27;20220;-67
2021/07/31 10:07:02;;;;;;;2.47;1.60;;;22.30;61.10;;;;;;5131948;27;20518;-67
2021/07/31 10:09:27;;;;;;;4.97;1.70;;;22.40;61.10;;;;;;5127593;27;20196;-64
2021/07/31 10:11:53;;;;;;;3.25;2.33;;;22.50;61.00;;;;;;5103353;28;20286;-65
2021/07/31 10:14:18;;;;;;;2.08;1.70;;;22.40;61.30;;;;;;5112506;28;20173;-64
2021/07/31 10:16:45;;;;;;;1.85;1.75;;;22.40;61.40;;;;;;5132033;28;20168;-65
2021/07/31 10:19:10;;;;;;;2.90;1.55;;;22.40;61.60;;;;;;5097859;28;20240;-65
2021/07/31 10:21:46;;;;;;;2.08;1.63;;;22.30;61.70;;;;;;5072533;28;20166;-64
2021/07/31 10:24:12;;;;;;;2.38;1.48;;;22.30;61.70;;;;;;5091889;28;20184;-65
2021/07/31 10:26:37;;;;;;;1.70;1.60;;;22.40;61.80;;;;;;5091133;28;20178;-65
2021/07/31 10:29:25;;;;;;;4.65;2.20;;;22.40;61.70;;;;;;5090561;28;20173;-64
2021/07/31 10:31:50;;;;;;;2.72;1.77;;;22.40;61.80;;;;;;5091383;28;20199;-66
2021/07/31 10:34:47;;;;;;;3.20;1.60;;;22.40;61.80;;;;;;5090013;28;20264;-64
2021/07/31 10:37:28;;;;;;;1.98;1.73;;;22.30;61.80;;;;;;5091351;28;20177;-65
2021/07/31 10:40:00;;;;;;;1.80;1.70;;;22.30;62.10;;;;;;5090910;28;20217;-65
2021/07/31 10:42:26;;;;;;;2.00;1.65;;;22.30;62.20;;;;;;5090019;28;20170;-64
2021/07/31 10:45:10;;;;;;;3.10;1.70;;;22.20;62.40;;;;;;5091411;28;20608;-64
2021/07/31 10:47:35;;;;;;;4.68;1.70;;;22.20;62.50;;;;;;5090696;28;20258;-66
2021/07/31 10:50:21;;;;;;;2.55;1.75;;;22.20;62.60;;;;;;5089961;28;20648;-67
2021/07/31 10:53:03;;;;;;;2.53;1.45;;;22.10;62.40;;;;;;5089620;28;20597;-65
2021/07/31 10:55:37;;;;;;;5.55;2.08;;;22.10;62.50;;;;;;5089660;28;20588;-65
2021/07/31 10:58:10;;;;;;;2.58;1.30;;;22.10;62.70;;;;;;5090696;28;20169;-66
2021/07/31 11:01:14;;;;;;;3.17;1.48;;;22.20;62.70;;;;;;5090244;28;20730;-65
2021/07/31 11:03:40;;;;;;;4.25;1.95;;;22.20;62.60;;;;;;5086898;28;20230;-68
2021/07/31 11:06:06;;;;;;;4.60;1.58;;;22.30;62.10;;;;;;5093044;28;20173;-69
2021/07/31 11:08:54;;;;;;;1.90;1.55;;;22.40;61.80;;;;;;5093971;28;20173;-69
2021/07/31 11:11:20;;;;;;;2.63;1.60;;;22.50;61.60;;;;;;5093186;28;20513;-68
2021/07/31 11:13:45;;;;;;;3.08;1.58;;;22.50;61.70;;;;;;5094731;28;20173;-69
2021/07/31 11:16:14;;;;;;;1.83;1.73;;;22.40;61.80;;;;;;5094696;28;20227;-68
2021/07/31 11:18:49;;;;;;;1.60;1.50;;;22.40;61.90;;;;;;5088194;28;20239;-68
2021/07/31 11:21:22;;;;;;;3.15;1.65;;;22.40;62.00;;;;;;5114268;28;20624;-68
2021/07/31 11:23:50;;;;;;;4.38;1.77;;;22.40;62.10;;;;;;5113869;28;20200;-68
2021/07/31 11:26:41;;;;;;;2.53;1.38;;;22.40;62.10;;;;;;5114226;28;20587;-68
2021/07/31 11:29:26;;;;;;;3.13;1.85;;;22.40;62.10;;;;;;5114807;28;20177;-68
2021/07/31 11:32:02;;;;;;;2.03;1.65;;;22.40;62.10;;;;;;5113812;28;20181;-64
2021/07/31 11:34:35;;;;;;;2.50;1.85;;;22.30;62.20;;;;;;5114452;28;20172;-64
2021/07/31 11:37:02;;;;;;;1.90;1.40;;;22.30;62.30;;;;;;5114825;28;20776;-64
2021/07/31 11:39:27;;;;;;;4.22;1.70;;;22.30;62.50;;;;;;5113467;28;20292;-63
2021/07/31 11:41:57;;;;;;;1.75;1.17;;;22.30;62.50;;;;;;5114525;28;20269;-63
2021/07/31 11:44:27;;;;;;;2.58;1.50;;;22.30;62.50;;;;;;5113796;28;20181;-62
2021/07/31 11:46:53;;;;;;;3.10;1.33;;;22.30;62.60;;;;;;5115008;28;20208;-63
2021/07/31 11:49:28;;;;;;;3.35;1.30;;;22.30;62.70;;;;;;5114509;28;20177;-64
2021/07/31 11:51:57;;;;;;;3.13;1.70;;;22.30;62.60;;;;;;5114107;28;20175;-64
2021/07/31 11:54:23;;;;;;;1.30;1.20;;;22.30;62.70;;;;;;5114107;28;20631;-66
2021/07/31 11:56:49;;;;;;;2.60;1.70;;;22.50;62.30;;;;;;5114352;28;20180;-64
2021/07/31 11:59:34;;;;;;;1.63;1.50;;;22.60;62.00;;;;;;5095610;28;20292;-66
2021/07/31 12:02:00;;;;;;;1.58;1.33;;;22.70;61.70;;;;;;5114131;28;20542;-66
2021/07/31 12:04:45;;;;;;;1.80;1.30;;;22.80;61.60;;;;;;5113745;28;20623;-65
2021/07/31 12:07:14;;;;;;;2.78;1.60;;;22.80;61.40;;;;;;5113156;28;20653;-65
2021/07/31 12:09:41;;;;;;;3.03;1.38;;;22.80;61.60;;;;;;5113614;28;20627;-72
2021/07/31 12:12:22;;;;;;;2.40;1.90;;;22.80;61.40;;;;;;5113971;28;20189;-70
2021/07/31 12:14:48;;;;;;;2.42;1.60;;;22.90;61.30;;;;;;5113452;28;20173;-70
2021/07/31 12:17:21;;;;;;;2.28;1.42;;;22.90;61.20;;;;;;5095186;28;20200;-69
2021/07/31 12:19:51;;;;;;;2.70;1.35;;;23.00;61.10;;;;;;5113051;28;20563;-69
2021/07/31 12:22:35;;;;;;;1.45;1.20;;;23.00;61.00;;;;;;5113599;28;20173;-69
2021/07/31 12:25:09;;;;;;;2.50;1.50;;;23.00;60.90;;;;;;5113841;28;20177;-71
2021/07/31 12:28:05;;;;;;;1.65;1.13;;;23.10;60.90;;;;;;5112725;28;20176;-70
2021/07/31 12:30:37;;;;;;;2.28;1.42;;;23.10;60.60;;;;;;5113037;28;20181;-72
2021/07/31 12:33:15;;;;;;;1.67;1.30;;;23.10;60.60;;;;;;5113670;28;20212;-72
2021/07/31 12:35:46;;;;;;;1.48;1.35;;;23.00;60.90;;;;;;5113090;28;20241;-72
2021/07/31 12:38:29;;;;;;;2.13;1.60;;;23.00;61.10;;;;;;5113578;28;20174;-71
2021/07/31 12:40:59;;;;;;;1.98;1.70;;;23.00;61.10;;;;;;5113280;28;20269;-70
2021/07/31 12:43:25;;;;;;;2.85;1.40;;;23.00;61.00;;;;;;5113115;28;20174;-63
2021/07/31 12:45:52;;;;;;;3.42;1.58;;;23.00;61.20;;;;;;5113157;28;20177;-65
2021/07/31 12:48:17;;;;;;;3.92;1.70;;;23.10;61.30;;;;;;5112324;28;20177;-63
2021/07/31 12:50:43;;;;;;;1.30;1.20;;;23.00;61.30;;;;;;5112180;28;20180;-64